Date,TemperatureHighF,TemperatureAvgF,TemperatureLowF,DewpointHighF,DewpointAvgF,DewpointLowF,HumidityHigh,HumidityAvg,HumidityLow,PressureMaxIn,PressureMinIn,WindSpeedMaxMPH,WindSpeedAvgMPH,GustSpeedMaxMPH,PrecipitationSumIn
2013-1-1,62.1,33.3,27.7,51.6,31.8,27.5,100,95,49,30.45,30.30,2,0,2,0.00
2013-1-2,72.5,36.6,27.5,38.7,27.7,20.5,100,75,16,30.31,30.14,3,0,3,0.00
2013-1-3,70.5,37.2,26.8,34.6,24.5,14.0,100,64,15,30.15,30.04,5,1,5,0.18
2013-1-4,50.0,41.0,34.9,48.6,40.5,34.6,100,98,91,30.25,30.11,7,1,7,0.02
2013-1-5,43.0,40.9,39.4,41.1,38.3,35.6,100,90,79,30.16,30.05,5,1,5,0.08
2013-1-6,46.2,41.7,39.0,43.2,40.6,38.8,100,96,82,30.12,29.93,10,2,10,0.24
2013-1-7,50.5,45.7,39.7,50.4,44.9,39.5,100,97,89,30.11,29.76,14,3,14,0.25
2013-1-8,51.1,46.4,41.5,50.8,45.7,41.3,100,97,91,30.11,29.67,20,4,20,0.89
2013-1-9,50.7,39.8,33.6,50.3,39.6,33.4,99,99,99,29.90,29.61,16,2,16,0.92
2013-1-10,39.7,33.8,29.5,39.5,33.4,29.2,100,99,93,30.06,29.88,5,0,5,0.02
2013-1-11,37.4,28.2,24.8,37.1,27.8,24.6,100,98,87,30.28,30.05,2,0,2,0.00
2013-1-12,60.4,29.2,22.5,45.5,26.3,21.8,100,91,39,30.40,30.26,3,0,3,0.00
2013-1-13,52.9,29.0,19.0,38.2,25.9,19.1,100,90,48,30.44,30.38,2,0,2,0.00
2013-1-14,34.2,32.2,30.0,33.9,32.0,29.6,100,99,97,30.52,30.41,2,0,2,0.02
2013-1-15,66.6,38.2,26.8,54.4,34.0,26.6,100,88,39,30.65,30.51,4,0,4,0.00
2013-1-16,65.1,32.6,24.8,44.8,29.7,-23.5,100,91,35,30.63,30.46,2,0,2,0.00
2013-1-17,40.3,30.3,25.9,39.1,29.8,8.3,100,98,88,30.48,30.24,3,0,3,0.01
2013-1-18,35.2,28.9,23.5,34.8,28.7,23.3,100,99,99,30.30,30.21,3,0,3,0.09
2013-1-19,33.3,31.0,28.6,33.0,30.8,28.3,99,99,99,30.34,30.29,2,0,2,0.00
2013-1-20,35.8,31.6,28.8,35.5,31.3,28.5,99,99,99,30.35,30.22,2,0,2,0.01
2013-1-21,34.0,31.0,27.9,33.7,30.8,27.6,99,99,99,30.22,30.08,1,0,2,0.01
2013-1-22,44.2,31.7,24.1,41.5,30.9,23.4,100,97,83,30.09,29.85,2,0,2,0.00
2013-1-23,41.5,38.8,34.0,41.3,36.7,30.4,100,93,66,30.08,29.79,6,1,6,0.33
2013-1-24,87.3,42.0,39.7,42.2,39.9,37.6,100,93,76,30.16,29.99,8,1,8,0.15
2013-1-25,53.6,44.7,38.5,48.2,43.5,38.2,100,96,84,30.01,29.87,8,2,8,0.07
2013-1-26,42.6,40.4,38.8,42.4,40.1,38.6,99,99,99,29.98,29.83,8,1,8,0.66
2013-1-27,42.3,39.5,36.1,40.5,38.9,35.9,100,98,88,30.00,29.93,11,2,11,0.26
2013-1-28,41.4,39.9,38.5,41.1,39.6,38.1,100,99,96,30.03,29.93,8,2,8,0.47
2013-1-29,45.3,43.1,41.4,45.1,42.8,39.1,100,99,96,30.28,30.03,11,1,11,0.48
2013-1-30,50.7,45.9,42.4,48.7,44.9,42.2,100,96,87,30.33,30.26,9,1,9,0.14
2013-1-31,49.6,46.9,45.9,47.3,45.7,44.3,100,96,86,30.34,30.25,9,2,9,0.07
2013-2-1,63.3,45.4,37.6,52.6,44.0,37.3,100,95,64,30.36,30.27,4,1,4,0.01
2013-2-2,46.2,39.7,35.6,45.1,39.3,35.4,100,98,91,30.34,30.20,5,1,5,0.00
2013-2-3,48.7,42.9,37.0,46.9,42.1,36.8,100,97,85,30.25,30.15,4,1,4,0.07
2013-2-4,56.7,46.5,43.3,47.9,44.1,43.1,100,92,67,30.15,29.83,5,1,5,0.00
2013-2-5,53.2,46.2,43.5,46.9,43.5,41.8,100,90,69,29.87,29.78,15,5,15,0.15
2013-2-6,48.9,45.1,43.0,43.5,41.3,39.4,100,87,72,29.99,29.74,15,4,15,0.07
2013-2-7,56.8,42.8,33.8,42.5,37.1,32.5,100,82,46,30.14,29.75,15,3,15,0.20
2013-2-8,48.9,37.4,28.8,47.1,35.7,28.5,100,94,81,30.26,30.14,2,0,2,0.00
2013-2-9,44.8,40.8,38.5,44.5,40.5,37.9,100,99,95,30.29,30.21,2,0,2,0.08
2013-2-10,54.3,39.5,35.1,53.2,38.3,34.8,100,95,80,30.32,30.27,4,0,4,0.01
2013-2-11,45.7,41.4,38.7,45.5,41.2,38.4,100,99,95,30.31,30.27,3,0,3,0.05
2013-2-12,49.3,45.5,41.2,48.7,44.6,40.9,100,97,90,30.35,30.21,11,2,11,0.01
2013-2-13,48.7,45.5,42.8,47.1,43.8,42.5,100,94,81,30.42,30.24,9,2,9,0.04
2013-2-14,48.7,44.9,42.1,45.5,43.9,41.8,100,96,84,30.50,30.44,7,1,7,0.07
2013-2-15,72.3,46.7,38.7,54.5,42.8,38.4,100,89,37,30.50,30.12,5,1,5,0.00
2013-2-16,46.9,42.2,36.0,46.7,41.8,35.7,100,99,93,30.15,30.08,13,1,13,0.27
2013-2-17,46.4,41.0,36.0,41.2,38.8,35.7,100,92,76,30.19,30.06,9,2,9,0.01
2013-2-18,46.6,39.8,33.8,41.4,36.4,33.6,99,88,70,30.06,29.71,9,1,9,0.00
2013-2-19,69.6,43.3,36.1,43.5,36.3,32.0,100,80,28,29.95,29.69,10,1,10,0.00
2013-2-20,46.0,39.4,34.3,41.5,37.9,34.1,100,95,74,29.99,29.94,8,1,8,0.04
2013-2-21,43.5,40.8,36.5,42.1,39.7,36.2,100,96,84,30.01,29.95,12,3,14,0.06
2013-2-22,46.0,42.0,38.1,42.6,40.2,35.2,100,94,82,29.98,29.60,21,6,21,0.15
2013-2-23,51.6,42.3,38.5,42.1,37.7,35.5,100,84,65,30.32,29.83,11,2,11,0.04
2013-2-24,47.1,43.5,39.9,39.1,37.3,35.7,90,79,67,30.32,29.89,13,4,13,0.00
2013-2-25,56.7,44.0,35.2,42.6,37.4,30.0,100,79,51,30.25,29.83,12,3,12,0.08
2013-2-26,48.0,42.2,33.1,39.8,34.4,30.6,97,75,53,30.30,30.14,10,2,10,0.04
2013-2-27,136.6,44.1,39.7,44.4,41.1,35.2,100,90,54,30.25,30.15,10,2,10,0.33
2013-2-28,52.3,45.3,41.0,52.1,45.1,40.7,99,99,99,30.26,30.14,17,2,17,0.30
2013-3-1,53.1,52.2,51.3,52.7,51.8,51.0,100,99,95,30.30,30.23,14,8,17,0.07
2013-3-7,36.5,35.6,35.1,35.7,35.4,34.8,99,99,99,29.92,29.91,0,0,0,0.82
2013-3-8,72.3,42.7,32.0,57.8,38.2,31.6,100,86,40,30.07,29.90,8,1,8,0.01
2013-3-9,73.4,42.7,28.2,52.2,36.6,28.0,100,83,25,30.32,30.07,4,0,4,0.00
2013-3-10,54.0,42.8,34.7,44.3,39.9,34.5,100,90,57,30.32,30.25,8,1,8,0.00
2013-3-11,60.4,46.8,39.2,48.2,42.7,38.3,100,87,56,30.28,29.98,5,1,5,0.01
2013-3-12,55.9,52.1,47.7,52.5,49.4,45.9,100,91,73,29.98,29.85,20,8,20,0.25
2013-3-13,52.7,51.8,50.9,52.3,50.5,49.2,100,95,89,30.02,29.90,21,5,21,0.18
2013-3-14,52.5,50.4,47.5,52.2,48.9,45.3,100,95,81,29.97,29.85,8,2,8,0.01
2013-3-15,60.4,52.4,48.2,51.4,48.8,47.1,100,88,68,30.03,29.95,8,2,8,0.01
2013-3-16,53.8,45.0,34.7,47.2,42.4,34.3,100,91,71,29.96,29.71,17,3,17,0.22
2013-3-17,57.2,41.4,36.9,41.3,37.6,33.4,100,88,46,30.01,29.79,10,2,10,0.09
2013-3-18,65.8,44.0,34.3,49.0,36.5,28.8,100,78,28,30.07,29.91,16,2,16,0.09
2013-3-19,73.8,43.4,32.5,45.0,36.4,24.2,100,81,22,30.06,29.43,14,2,14,0.17
2013-3-20,57.0,47.0,42.1,50.6,43.2,39.2,99,87,57,29.63,29.20,22,6,22,0.12
2013-3-21,55.6,41.4,33.3,45.9,36.4,31.5,100,83,56,30.03,29.83,10,2,10,0.18
2013-3-22,64.6,39.5,31.3,43.1,33.3,26.0,100,82,42,30.20,30.03,8,1,8,0.65
2013-3-23,65.8,40.4,29.8,43.7,31.4,27.4,100,75,28,30.23,30.13,5,1,5,0.00
2013-3-24,66.6,42.1,28.6,43.6,31.6,21.6,100,71,23,30.13,29.95,5,1,5,0.00
2013-3-25,77.5,47.5,31.5,39.9,30.5,15.2,90,59,10,29.97,29.77,6,1,6,0.00
2013-3-26,74.8,51.1,39.7,44.0,37.4,31.4,86,63,25,29.84,29.78,8,1,8,0.00
2013-3-27,62.8,49.1,40.6,49.5,43.7,37.1,100,83,59,29.82,29.77,3,0,3,0.02
2013-3-28,78.1,53.1,40.8,57.6,45.8,40.6,99,80,36,29.98,29.82,7,1,7,0.00
2013-3-29,79.7,53.3,40.3,55.2,44.4,39.8,100,77,32,30.08,29.97,7,1,7,0.01
2013-3-30,71.8,44.8,40.1,54.6,43.4,39.8,100,96,48,30.09,30.06,5,1,5,0.00
2013-3-31,82.6,55.3,39.6,52.9,44.4,39.3,100,73,28,29.91,29.74,4,1,4,0.00
2013-4-1,68.0,53.8,43.3,53.7,47.1,41.7,100,79,55,29.98,29.79,13,2,13,0.00
2013-4-2,56.3,52.1,48.4,50.2,47.8,45.6,100,85,74,30.03,29.98,9,2,9,0.01
2013-4-3,75.7,54.5,45.1,54.6,47.8,44.4,100,83,35,30.02,29.90,5,1,5,0.00
2013-4-4,56.8,52.7,48.0,56.4,51.1,46.4,100,94,82,29.78,29.47,9,1,9,0.31
2013-4-5,64.6,53.4,48.0,52.6,50.1,47.7,100,90,58,29.69,29.56,17,6,17,0.61
2013-4-6,57.6,48.8,45.0,49.6,45.3,42.6,100,88,68,29.74,29.54,14,5,14,0.19
2013-4-7,49.1,43.6,39.9,46.4,42.9,39.7,100,97,88,29.72,29.34,7,1,7,0.37
2013-4-8,53.6,46.7,42.6,49.2,45.3,42.4,100,95,82,30.10,29.73,4,1,4,0.06
2013-4-9,55.0,49.3,42.3,47.0,43.5,41.2,99,82,64,30.18,30.00,8,2,8,0.00
2013-4-10,60.6,51.6,47.3,54.0,46.8,42.1,100,84,61,30.08,29.73,21,4,21,0.13
2013-4-11,59.9,48.0,39.7,46.2,40.6,35.1,100,77,49,30.13,30.02,11,2,11,0.07
2013-4-12,47.3,42.2,37.6,44.0,40.4,35.4,100,94,73,30.02,29.49,13,3,13,0.25
2013-4-13,52.2,41.7,34.9,47.4,40.3,34.6,100,95,74,29.82,29.57,12,2,12,0.35
2013-4-14,60.6,46.3,39.0,44.6,39.2,33.4,100,79,39,29.84,29.74,8,1,8,0.00
2013-4-15,63.0,46.3,37.4,45.3,40.2,37.1,100,82,43,30.00,29.77,11,2,11,0.00
2013-4-16,70.9,46.8,33.1,50.3,37.6,30.1,99,75,32,30.23,30.00,7,1,7,0.02
2013-4-17,71.2,49.1,35.6,43.4,38.0,25.0,100,72,20,30.28,30.22,11,2,11,0.00
2013-4-18,50.5,47.2,43.9,49.0,44.1,39.5,100,89,77,30.28,30.04,8,2,8,0.11
2013-4-19,56.8,50.7,48.2,56.3,50.4,47.9,100,99,95,30.04,29.88,11,2,11,0.15
2013-4-20,59.2,49.4,46.2,54.1,48.0,46.0,100,95,70,30.11,30.02,7,1,7,0.05
2013-4-21,61.2,48.0,41.2,51.5,43.9,38.4,99,87,55,30.19,30.06,14,2,14,0.01
2013-4-22,68.9,48.4,36.0,46.2,36.0,20.9,100,69,21,30.36,30.19,10,2,10,0.00
2013-4-23,72.9,49.9,33.8,48.3,35.9,9.9,100,67,10,30.26,30.07,11,2,11,0.00
2013-4-24,79.3,54.5,37.2,48.9,37.0,18.0,100,62,11,30.16,29.90,10,2,10,0.00
2013-4-25,84.9,58.0,40.1,48.9,40.4,32.8,88,58,18,29.97,29.87,8,1,8,0.00
2013-4-26,77.9,56.8,42.1,56.6,47.8,41.8,100,75,42,30.08,29.97,8,1,8,0.00
2013-4-27,54.9,52.8,50.2,50.4,45.9,38.4,100,78,54,30.05,29.98,11,2,11,0.13
2013-4-28,66.4,51.3,45.9,54.9,46.8,40.6,100,86,57,30.05,29.75,14,2,14,0.22
2013-4-29,61.9,49.3,43.7,48.4,37.1,25.9,100,65,36,29.99,29.74,20,5,20,0.02
2013-4-30,65.7,47.6,36.9,40.6,33.1,17.5,96,63,20,30.28,29.99,10,2,10,0.01
2013-5-1,77.2,50.2,31.3,42.1,33.8,20.7,100,62,16,30.41,30.28,7,1,7,0.00
2013-5-2,77.2,54.1,39.7,48.7,40.9,36.3,95,64,26,30.38,30.20,11,2,11,0.00
2013-5-3,77.4,56.9,39.4,51.8,44.3,38.3,100,67,32,30.23,30.06,10,2,10,0.00
2013-5-4,52.9,49.0,45.0,46.1,44.9,43.2,97,86,74,30.07,30.05,3,1,3,0.00
2013-5-5,88.9,61.3,49.1,55.5,48.3,36.0,100,70,21,30.34,29.86,8,2,8,0.18
2013-5-6,99.9,68.8,50.5,52.1,45.4,35.3,79,49,13,29.95,29.84,9,1,9,0.00
2013-5-7,87.4,61.9,50.5,57.4,51.7,46.8,100,73,31,30.08,29.91,8,2,8,0.00
2013-5-8,76.5,58.0,50.2,57.3,52.4,49.1,100,83,48,30.24,30.08,5,1,5,0.00
2013-5-9,82.9,59.0,46.2,59.8,51.7,46.0,100,81,36,30.32,30.22,6,1,6,0.00
2013-5-10,88.0,62.6,45.1,61.0,52.2,44.7,100,74,33,30.30,30.20,8,1,8,0.00
2013-5-11,88.7,66.1,52.3,57.9,50.7,42.9,94,63,25,30.26,30.08,10,2,10,0.00
2013-5-12,74.7,64.0,57.7,60.8,56.8,52.6,100,79,48,30.17,30.08,14,4,14,0.15
2013-5-13,65.1,57.7,48.6,61.4,52.1,40.0,100,83,55,30.27,30.01,16,3,16,0.26
2013-5-14,79.9,56.1,47.5,48.8,42.9,33.1,88,65,30,30.32,30.22,9,2,9,0.00
2013-5-15,76.5,55.7,43.0,51.6,45.7,37.6,100,74,29,30.22,30.11,8,1,8,0.05
2013-5-16,80.4,61.6,52.0,59.4,52.9,50.5,99,77,38,30.11,29.96,6,1,6,0.01
2013-5-17,61.9,57.1,53.1,54.9,51.2,48.3,96,81,67,30.14,30.03,8,3,8,0.00
2013-5-18,66.9,56.7,51.4,49.5,48.0,43.8,92,74,48,30.37,30.14,7,2,7,0.00
2013-5-19,79.3,57.8,50.0,57.6,49.7,45.0,95,76,36,30.50,30.37,9,2,9,0.00
2013-5-20,82.4,57.1,43.3,56.1,48.8,43.1,100,78,32,30.45,30.00,13,2,13,0.00
2013-5-21,59.2,50.1,46.0,55.0,48.5,45.8,100,94,79,30.00,29.88,8,1,8,0.60
2013-5-22,57.2,48.2,44.8,54.0,47.1,44.5,100,96,82,30.04,29.94,6,1,6,0.18
2013-5-23,63.1,50.0,43.5,53.1,46.8,43.1,100,90,56,30.11,30.02,14,1,14,0.07
2013-5-24,78.8,54.8,44.1,54.6,46.9,38.0,99,78,28,30.14,30.06,8,1,8,0.00
2013-5-25,53.8,51.6,50.5,50.0,48.9,47.1,95,91,79,30.14,30.12,7,2,7,0.00
2013-5-27,62.2,56.3,50.0,59.3,54.2,49.7,100,93,78,30.06,29.82,5,2,5,0.15
2013-5-28,69.3,57.3,52.2,54.8,50.9,47.9,100,81,52,29.97,29.87,8,4,8,0.00
2013-5-29,57.4,52.4,50.0,55.4,51.3,49.7,100,96,87,30.06,29.77,5,1,5,0.34
2013-5-30,66.4,55.6,49.3,50.3,48.0,45.3,100,78,48,30.33,30.06,9,4,9,0.01
2013-5-31,77.5,58.8,49.5,54.1,48.7,42.7,96,72,35,30.44,30.34,4,1,4,0.00
2013-6-1,82.9,61.6,48.2,56.5,49.8,45.8,96,70,30,30.34,30.16,7,1,7,0.00
2013-6-2,82.4,61.6,52.9,56.2,50.2,46.9,92,70,29,30.19,30.14,7,2,7,0.01
2013-6-3,86.5,62.3,46.8,59.1,51.7,46.1,100,72,32,30.22,30.16,8,2,8,0.00
2013-6-4,91.8,65.0,47.5,59.3,51.3,44.1,100,67,24,30.24,30.12,8,1,8,0.00
2013-6-5,87.3,64.7,51.1,61.0,53.0,45.8,89,69,32,30.20,30.14,8,2,8,0.00
2013-6-6,91.6,64.7,50.0,62.6,50.5,38.4,100,67,17,30.16,30.11,11,2,11,0.00
2013-6-7,69.4,60.6,52.5,53.0,47.5,41.5,85,63,41,30.26,30.11,12,2,12,0.00
2013-6-8,80.6,60.3,51.1,55.2,49.6,47.4,90,70,38,30.29,30.20,10,2,10,0.01
2013-6-9,78.3,59.1,49.5,53.1,48.0,44.3,94,70,34,30.22,30.14,11,2,11,0.01
2013-6-10,83.7,59.9,44.4,52.6,47.3,36.2,100,68,20,30.14,29.97,9,2,9,0.00
2013-6-11,68.2,57.5,52.9,55.6,48.2,44.8,86,72,46,30.19,30.03,10,2,10,0.00
2013-6-12,70.7,59.0,50.4,51.6,47.1,39.6,86,67,36,30.22,30.19,8,2,8,0.00
2013-6-13,73.9,59.0,50.9,56.8,51.8,46.7,99,80,42,30.30,30.22,6,2,6,0.14
2013-6-14,73.4,59.2,53.1,52.4,49.6,47.7,89,72,44,30.33,30.15,7,2,7,0.00
2013-6-15,82.8,62.5,46.6,58.4,52.7,46.3,100,75,35,30.14,30.02,4,1,4,0.00
2013-6-16,83.1,63.8,51.3,60.6,55.6,51.0,100,78,35,30.18,30.08,6,1,6,0.02
2013-6-17,90.7,67.6,51.4,60.9,51.9,39.5,100,65,19,30.19,29.97,8,1,8,0.06
2013-6-18,81.9,64.2,54.7,56.9,51.1,34.6,100,68,19,30.07,29.95,14,2,14,0.01
2013-6-19,76.1,60.3,53.4,59.8,53.5,49.7,97,79,50,30.10,30.00,6,1,6,0.04
2013-6-20,58.1,54.8,52.5,57.8,54.2,51.6,100,98,80,30.21,30.06,7,1,7,1.00
2013-6-21,70.0,59.7,52.2,60.6,54.2,51.3,100,84,56,30.26,30.20,5,1,5,0.01
2013-6-22,88.0,65.3,49.8,63.7,55.0,49.6,100,75,32,30.23,29.95,8,1,8,0.00
2013-6-23,75.7,66.0,57.7,64.8,60.5,54.8,100,83,63,29.95,29.69,4,1,4,0.11
2013-6-24,68.7,62.6,57.6,62.3,57.6,53.3,100,85,61,29.80,29.67,16,3,16,0.09
2013-6-25,79.5,63.3,55.9,62.0,57.7,52.3,100,84,43,29.96,29.77,17,2,17,0.31
2013-6-26,80.6,64.3,54.9,64.3,58.0,54.6,100,82,45,30.18,29.95,12,2,12,0.02
2013-6-27,74.7,66.2,59.4,67.9,62.0,57.2,100,87,69,30.29,30.14,6,1,6,0.06
2013-6-28,99.5,73.4,60.1,71.1,64.2,59.8,100,77,31,30.29,30.12,7,1,7,0.00
2013-6-29,96.6,74.3,62.6,69.9,62.9,55.9,100,71,36,30.20,30.08,7,1,7,0.00
2013-6-30,104.4,76.0,58.8,69.9,62.0,56.3,94,67,28,30.11,29.94,6,1,6,0.00
2013-7-1,96.8,73.8,62.1,67.0,60.8,57.8,87,66,34,30.14,30.00,10,2,10,0.00
2013-7-2,86.7,68.3,58.3,65.2,56.2,50.2,95,69,32,30.22,30.13,11,2,11,0.00
2013-7-3,83.5,65.2,55.6,58.6,51.0,39.4,82,63,24,30.26,30.16,13,2,13,0.00
2013-7-4,77.0,63.1,53.1,59.2,53.9,49.7,92,73,47,30.22,30.12,5,1,5,0.00
2013-7-5,88.7,65.7,52.9,61.4,55.1,50.6,100,72,32,30.14,30.04,4,1,4,0.00
2013-7-6,89.8,67.2,53.2,62.7,55.2,50.1,100,71,28,30.08,29.95,8,2,9,0.00
2013-7-7,93.9,69.3,53.6,63.7,56.3,44.6,96,68,21,30.03,29.96,8,1,8,0.00
2013-7-8,93.9,69.5,58.5,63.6,57.4,51.4,95,70,29,30.18,30.03,8,2,8,0.00
2013-7-9,95.2,69.5,54.7,64.9,56.0,46.5,100,69,24,30.22,30.11,11,2,11,0.00
2013-7-10,83.7,64.9,55.8,60.7,55.2,51.8,89,72,45,30.17,30.07,8,2,8,0.01
2013-7-11,83.5,62.4,52.9,56.0,49.8,45.0,84,66,26,30.18,30.10,6,1,6,0.00
2013-7-12,78.4,60.9,48.7,56.6,51.3,46.0,93,73,42,30.20,30.11,3,1,3,0.00
2013-7-13,86.0,64.3,46.2,54.9,48.9,41.5,100,64,22,30.30,30.20,8,2,8,0.00
2013-7-14,93.7,65.8,46.9,57.5,48.8,43.1,100,63,18,30.24,30.09,5,2,5,0.00
2013-7-15,88.0,68.9,50.0,57.4,49.0,45.6,99,54,27,30.15,29.99,11,2,11,0.00
2013-7-16,95.0,70.8,53.1,59.2,52.2,45.5,94,57,19,30.00,29.88,8,2,8,0.00
2013-7-17,75.6,66.2,60.8,61.4,58.4,56.7,94,77,55,30.25,29.97,12,4,12,0.02
2013-8-13,95.7,68.9,55.0,63.5,55.9,48.0,100,70,22,30.20,30.02,5,1,5,0.00
2013-8-14,91.8,68.7,54.9,64.3,57.6,49.3,100,73,27,30.05,29.99,5,1,5,0.01
2013-8-15,72.3,67.1,61.9,68.7,65.3,61.6,100,95,78,30.08,30.01,4,1,4,0.05
2013-8-16,98.4,73.4,61.5,68.7,59.4,42.1,100,70,18,30.10,30.02,4,1,4,0.01
2013-8-17,82.6,68.9,59.4,62.8,57.8,53.9,83,69,46,30.17,30.09,6,2,6,0.08
2013-8-18,89.8,67.5,57.6,59.3,54.8,50.2,92,67,29,30.22,30.17,8,2,8,0.00
2013-8-19,90.7,68.4,59.2,59.2,53.8,49.2,84,62,27,30.21,30.16,11,2,11,0.00
2013-8-20,86.4,66.0,53.1,58.3,51.1,42.0,92,63,23,30.27,30.17,10,2,10,0.28
2013-8-21,93.2,66.6,49.6,56.0,49.7,41.1,96,62,17,30.21,30.03,8,1,8,0.00
2013-8-22,96.3,70.3,54.1,58.1,53.3,42.7,93,61,18,30.21,29.88,4,0,4,0.00
2013-8-23,83.7,67.3,61.3,58.2,55.0,49.2,84,66,31,30.00,29.92,11,2,11,0.00
2013-8-24,86.4,66.9,57.7,64.9,57.0,50.6,94,73,36,30.02,29.95,6,1,6,0.00
2013-8-25,83.1,62.9,50.7,59.5,54.7,47.4,100,77,31,30.05,29.96,12,0,12,0.00
2013-8-26,82.2,66.9,57.7,63.0,56.4,43.0,93,72,33,30.05,29.94,10,2,10,0.00
2013-8-27,86.9,69.8,61.0,61.4,56.9,52.7,89,67,33,30.05,29.88,6,1,6,0.00
2013-8-28,89.6,70.1,59.9,69.0,61.0,56.0,100,76,35,29.98,29.92,5,0,5,0.02
2013-8-29,79.0,67.5,63.1,72.6,64.8,60.0,100,92,63,30.10,29.95,7,1,7,0.43
2013-8-30,87.3,68.4,59.0,64.6,57.4,47.0,97,71,28,30.24,30.10,9,2,9,0.00
2013-8-31,94.3,66.6,52.3,63.0,55.4,49.6,100,73,24,30.18,29.93,7,1,7,0.00
2013-9-1,100.2,69.6,55.2,61.8,56.0,43.5,97,68,18,29.99,29.88,6,1,6,0.00
2013-9-2,100.0,71.3,57.9,63.8,56.5,43.7,92,65,18,30.03,29.94,6,1,6,0.01
2013-9-3,82.8,64.8,59.2,69.1,61.4,57.5,100,89,56,30.12,30.02,5,0,5,0.00
2013-9-4,76.6,63.8,57.6,64.9,60.9,57.3,100,91,62,30.15,30.10,5,1,5,0.00
2013-9-5,76.3,63.7,58.3,65.0,60.0,57.7,100,89,62,30.15,30.01,7,1,7,0.00
2013-9-6,80.4,64.8,60.3,68.5,61.6,58.9,99,90,53,30.19,30.04,8,1,8,0.01
2013-9-7,86.4,66.5,58.5,69.6,60.8,56.7,100,84,43,30.20,30.11,4,0,4,0.00
2013-9-8,96.6,67.9,56.5,69.2,59.5,52.2,100,79,25,30.21,30.11,2,0,2,0.00
2013-9-9,96.1,67.6,58.3,67.6,58.9,52.0,100,78,26,30.17,30.07,6,0,6,0.00
2013-9-10,93.2,66.3,55.9,65.8,59.3,54.1,100,81,31,30.10,29.98,4,0,4,0.00
2013-9-11,108.9,71.8,55.6,69.6,59.1,47.3,100,72,14,30.05,29.96,3,0,3,0.00
2013-9-12,99.5,70.5,57.0,66.8,58.6,51.2,100,72,21,30.09,29.99,4,1,4,0.00
2013-9-14,74.7,64.4,59.9,63.4,61.2,58.5,100,90,66,29.98,29.83,3,0,3,0.00
2013-9-15,66.6,62.0,58.8,64.8,61.4,58.5,100,98,89,29.91,29.81,3,0,3,0.00
2013-9-16,66.6,61.3,55.9,62.0,59.1,55.4,100,93,77,30.03,29.90,5,2,5,0.00
2013-9-17,64.2,58.8,54.9,58.5,55.2,52.8,100,89,72,30.03,29.96,4,0,4,0.00
2013-9-18,83.5,61.2,52.7,61.1,52.7,45.6,100,78,29,30.17,30.03,2,1,2,0.00
2013-9-19,94.1,63.4,46.4,55.5,47.3,33.1,97,65,13,30.14,29.85,2,0,2,0.00
2013-9-20,90.1,63.0,50.5,60.3,50.3,34.3,88,68,16,29.85,29.67,8,1,8,0.00
2013-9-21,83.1,63.5,54.5,58.8,53.2,41.4,95,73,23,29.81,29.73,7,1,7,0.00
2013-9-22,61.7,58.7,55.6,57.6,52.4,44.5,92,80,55,29.81,29.66,14,4,14,0.00
2013-9-23,64.9,56.1,50.5,54.9,51.7,49.6,100,86,61,30.06,29.80,14,4,14,0.00
2013-9-24,72.9,55.1,48.4,57.2,50.1,40.5,100,85,31,30.06,29.93,8,0,8,0.00
2013-9-25,61.0,53.5,45.1,53.3,49.5,43.5,96,87,67,30.12,29.95,10,1,10,0.00
2013-9-26,74.8,52.3,41.5,57.3,46.3,41.5,100,83,42,30.22,30.12,5,1,5,0.00
2013-9-27,55.9,53.2,46.2,53.5,50.8,43.7,97,92,86,30.22,29.93,8,1,8,0.00
2013-9-28,60.8,55.8,51.8,60.5,54.4,50.1,100,95,86,29.93,29.42,14,4,14,0.00
2013-9-29,55.2,53.1,51.8,53.8,50.4,46.6,100,91,79,29.64,29.25,16,4,16,0.00
2013-9-30,62.2,53.3,49.6,51.7,47.1,42.5,93,80,57,29.99,29.49,15,6,15,0.00
2013-10-1,64.6,52.5,47.1,52.3,45.0,38.2,94,77,40,30.20,29.99,13,3,13,0.00
2013-10-2,54.9,51.1,48.4,50.3,48.0,45.8,100,89,76,30.26,30.15,7,1,7,0.00
2013-10-3,81.0,52.9,43.5,58.4,46.7,37.6,100,83,27,30.55,30.27,4,0,4,0.00
2013-10-4,85.1,53.6,39.6,59.1,44.7,39.3,100,78,22,30.58,30.44,2,0,2,0.00
2013-10-5,88.2,56.7,43.5,55.0,44.3,24.6,94,70,15,30.45,30.22,4,0,4,0.00
2013-10-6,93.2,59.9,43.9,54.0,41.3,15.2,100,62,10,30.22,29.97,11,2,11,0.00
2013-10-7,57.0,53.3,51.1,53.3,50.7,48.3,100,91,73,30.11,29.96,11,3,12,0.00
2013-10-8,65.3,51.9,41.9,56.8,46.8,39.8,100,84,53,30.18,30.05,9,1,9,0.00
2013-10-9,78.8,49.0,37.4,56.2,42.9,37.1,100,83,34,30.24,30.08,4,0,4,0.00
2013-10-11,58.6,51.3,47.1,54.6,48.9,46.5,100,92,75,30.24,30.15,1,0,1,0.00
2013-10-12,70.2,51.4,43.5,56.7,47.3,42.7,100,88,49,30.30,30.16,7,1,7,0.00
2013-10-13,57.6,47.3,41.0,52.3,45.1,40.1,100,93,73,30.46,30.30,2,0,2,0.00
2013-10-14,76.3,48.2,38.8,56.7,43.3,38.3,100,86,34,30.52,30.45,2,0,2,0.00
2013-10-15,78.8,51.6,39.0,57.6,44.1,38.8,100,80,31,30.48,30.26,2,0,2,0.00
2013-10-16,55.6,50.3,44.1,50.6,48.1,43.3,100,93,80,30.30,30.25,2,0,2,0.00
2013-10-17,57.7,49.9,43.0,51.3,47.5,43.0,100,92,75,30.37,30.30,3,0,3,0.00
2013-10-18,61.9,45.8,43.5,57.2,45.5,43.3,100,99,86,30.34,30.32,3,0,3,0.00
2013-10-27,63.0,49.0,42.8,54.2,46.4,41.5,100,91,70,30.29,29.99,4,1,4,0.20
2013-10-28,75.4,49.0,37.4,56.9,36.4,20.2,99,70,16,30.04,29.98,7,1,7,0.00
2013-10-29,78.8,45.8,32.9,51.4,35.3,31.4,97,74,18,30.13,30.04,2,0,2,0.00
2013-10-30,57.6,46.8,35.4,46.5,40.6,33.1,94,80,54,30.22,30.13,6,1,6,0.00
2013-10-31,54.0,50.4,48.2,51.4,48.1,43.1,100,92,75,30.35,30.18,5,1,5,0.11
2013-11-1,59.5,53.5,48.0,56.0,50.8,47.8,99,91,79,30.36,29.93,2,0,2,0.01
2013-11-2,53.8,47.4,43.9,51.7,46.2,42.9,100,96,77,29.99,29.55,19,2,19,0.96
2013-11-3,61.0,43.6,37.4,54.2,40.9,36.5,100,91,58,30.20,29.97,6,1,6,0.08
2013-11-4,70.0,42.7,32.0,49.9,37.3,31.8,100,84,36,30.29,30.15,2,0,2,0.08
2013-11-5,51.3,45.1,41.2,51.0,44.5,38.8,100,98,91,30.35,30.11,2,0,2,0.13
2013-11-6,53.2,46.4,41.4,52.2,45.2,41.1,100,96,83,30.42,30.12,3,0,3,0.04
2013-11-7,50.0,48.2,46.9,49.4,47.5,46.1,100,97,88,30.12,29.81,15,2,15,0.54
2013-11-8,65.3,49.6,42.6,53.0,44.5,39.8,100,84,41,30.25,30.06,8,1,8,0.00
2013-11-9,58.5,45.8,36.7,48.5,42.4,35.7,100,89,56,30.25,30.17,2,0,2,0.06
2013-11-10,51.4,47.3,44.4,48.1,45.9,43.1,100,95,86,30.25,30.19,4,0,4,0.04
2013-11-11,66.6,50.0,41.7,54.9,44.6,39.2,100,83,55,30.25,30.09,4,0,4,0.00
2013-11-12,68.2,53.5,47.8,63.4,48.5,39.1,100,84,57,30.44,30.12,13,2,13,0.17
2013-11-13,63.7,53.1,48.7,53.3,48.4,44.6,95,84,58,30.52,30.44,8,1,8,0.00
2013-11-14,52.3,48.3,45.1,49.5,46.7,42.8,100,95,85,30.40,30.14,2,0,2,0.13
2013-11-15,46.4,45.1,43.0,45.6,44.2,42.4,100,96,89,30.15,29.42,14,4,14,0.38
2013-11-16,50.4,44.1,39.9,42.4,38.8,36.3,97,82,67,29.85,29.43,5,2,5,0.00
2013-11-17,51.4,46.9,38.7,45.6,42.2,34.2,92,84,69,29.98,29.85,11,4,11,0.00
2013-11-18,51.3,49.4,46.4,51.0,48.2,43.7,100,96,83,29.98,29.63,7,2,7,0.43
2013-11-19,52.0,44.5,39.0,51.7,37.9,23.7,100,79,50,30.16,29.62,10,2,10,0.21
2013-11-20,66.7,36.6,28.2,41.0,25.2,21.7,95,66,20,30.60,30.17,3,0,3,0.00
2013-11-21,66.9,35.0,25.2,39.0,24.0,15.6,94,69,14,30.76,30.60,2,0,3,0.00
2013-11-22,63.9,36.9,26.1,38.7,26.3,20.5,94,70,21,30.75,30.54,4,0,4,0.00
2013-11-23,60.6,38.7,29.3,41.0,31.0,25.9,94,76,33,30.54,30.29,2,0,4,0.00
2013-11-24,74.1,40.3,30.4,48.0,33.0,26.2,100,80,19,30.35,30.26,3,0,3,0.00
2013-11-25,72.0,41.6,31.6,49.2,33.5,27.1,100,77,24,30.41,30.34,2,0,2,0.00
2013-11-26,76.1,43.1,30.2,44.5,34.3,24.3,100,76,15,30.36,30.19,2,0,2,0.00
2013-11-27,63.7,44.5,35.4,47.1,38.0,33.2,94,79,46,30.19,30.05,2,0,2,0.00
2013-11-28,77.5,43.8,33.1,48.4,34.8,26.3,100,76,17,30.27,30.11,4,0,4,0.00
2013-11-29,48.0,43.5,38.1,45.4,40.9,33.9,97,91,82,30.40,30.26,5,0,5,0.00
2013-11-30,50.7,48.3,45.3,49.3,44.8,41.5,100,88,71,30.41,30.16,9,2,9,0.07
2013-12-1,53.1,49.7,40.6,52.9,48.5,39.3,100,96,86,30.16,29.83,13,2,13,0.52
2013-12-2,61.5,39.5,34.3,45.5,35.5,25.9,100,88,32,30.14,29.89,8,1,8,0.14
2013-12-3,64.4,35.7,24.8,37.4,26.7,16.5,100,74,19,30.40,30.13,4,0,4,0.00
2013-12-4,63.5,30.3,22.8,37.9,22.6,18.8,97,77,22,30.44,30.38,2,0,2,0.00
2013-12-5,35.1,26.7,21.4,27.0,21.2,15.4,88,80,66,30.42,30.28,1,0,1,0.00
2013-12-6,47.7,26.3,19.0,21.4,7.0,-10.8,70,47,10,30.33,30.25,7,1,7,0.00
2013-12-7,56.8,23.8,15.3,12.3,2.1,-13.7,67,42,10,30.52,30.33,3,0,3,0.00
2013-12-8,55.4,25.2,14.0,21.7,10.1,-2.0,74,57,10,30.66,30.50,3,0,3,0.00
2013-12-9,32.0,26.7,17.4,22.1,18.8,10.6,78,72,63,30.67,30.57,2,0,2,0.00
2013-12-10,37.8,33.5,30.2,30.7,27.1,22.0,82,77,71,30.59,30.50,2,0,2,0.00
2013-12-11,48.9,33.9,26.8,37.8,29.0,24.9,100,83,57,30.51,30.25,2,0,2,0.00
2013-12-12,44.2,38.7,31.3,41.7,33.9,27.0,100,84,58,30.25,30.13,8,1,8,0.09
2013-12-13,45.5,43.6,41.0,45.2,43.3,40.7,100,99,97,30.50,30.22,5,0,5,0.02
2013-12-14,48.4,45.4,41.2,46.0,43.8,40.9,100,94,84,30.52,30.41,5,1,5,0.00
2013-12-15,49.3,47.2,44.8,48.4,46.2,42.9,100,96,86,30.55,30.41,7,1,7,0.01
2013-12-16,54.3,41.1,34.5,51.5,40.0,34.5,100,96,82,30.59,30.36,2,0,2,0.00
2013-12-17,41.9,38.4,34.3,41.6,38.2,34.1,99,99,99,30.36,30.19,4,0,4,0.00
2013-12-18,55.4,40.8,29.3,53.5,36.7,26.5,99,86,65,30.24,30.12,12,1,12,0.00
2013-12-19,56.5,31.7,24.3,41.5,27.6,21.2,95,86,45,30.44,30.23,2,0,2,0.00
2013-12-20,36.5,33.4,30.4,36.2,32.7,28.3,100,97,92,30.29,29.81,4,0,4,0.24
2013-12-21,42.1,38.6,35.2,41.8,38.4,35.0,99,99,99,30.26,29.93,2,0,2,0.06
2013-12-22,48.9,44.0,39.4,48.7,43.7,39.1,99,99,99,30.39,30.25,8,1,8,0.19
2013-12-23,54.9,47.1,40.5,54.2,45.0,37.3,100,93,77,30.62,30.22,15,3,15,0.19
2013-12-24,61.0,40.2,31.5,53.9,38.4,31.3,100,94,65,30.72,30.61,2,0,2,0.00
2013-12-25,62.1,35.5,28.2,52.8,32.8,28.0,100,91,47,30.63,30.49,2,0,2,0.00
2013-12-26,72.3,40.4,32.0,49.4,35.4,30.8,100,86,29,30.50,30.30,2,0,2,0.00
2013-12-27,43.2,38.4,31.1,42.9,38.0,30.1,100,99,95,30.46,30.19,7,0,7,0.01
2013-12-28,52.9,42.1,36.3,52.6,41.5,36.2,100,98,90,30.61,30.44,2,0,2,0.00
2013-12-29,43.2,38.6,35.2,42.9,38.3,35.0,99,99,99,30.57,30.40,2,0,2,0.01
2013-12-30,44.1,39.8,35.1,43.7,39.3,34.8,100,98,89,30.41,30.21,7,1,7,0.01
2013-12-31,47.1,43.5,37.9,44.8,42.3,37.7,100,95,89,30.46,30.27,4,1,4,0.00
2014-1-1,51.6,40.0,33.3,49.2,38.8,33.0,100,96,82,30.50,30.33,2,0,2,0.01
2014-1-2,49.3,44.4,40.1,45.9,41.9,39.7,100,92,70,30.34,30.00,11,2,11,0.38